sensor_id;sensor_type;location;lat;lon;timestamp;P1;durP1;ratioP1;P2;durP2;ratioP2
3052;SDS011;1536;51.098;6.414;2023-06-10T00:02:01;10.63;;;9.60;;
3052;SDS011;1536;51.098;6.414;2023-06-10T00:04:28;9.60;;;8.70;;
3052;SDS011;1536;51.098;6.414;2023-06-10T00:06:55;11.53;;;9.67;;
3052;SDS011;1536;51.098;6.414;2023-06-10T00:09:22;9.53;;;8.63;;
3052;SDS011;1536;51.098;6.414;2023-06-10T00:11:49;10.13;;;9.20;;
3052;SDS011;1536;51.098;6.414;2023-06-10T00:14:16;10.23;;;9.33;;
3052;SDS011;1536;51.098;6.414;2023-06-10T00:16:43;13.10;;;10.10;;
3052;SDS011;1536;51.098;6.414;2023-06-10T00:19:12;11.17;;;8.53;;
3052;SDS011;1536;51.098;6.414;2023-06-10T00:21:40;11.50;;;9.70;;
3052;SDS011;1536;51.098;6.414;2023-06-10T00:24:10;10.37;;;9.23;;
3052;SDS011;1536;51.098;6.414;2023-06-10T00:26:37;9.40;;;8.50;;
3052;SDS011;1536;51.098;6.414;2023-06-10T00:29:04;11.57;;;10.43;;
3052;SDS011;1536;51.098;6.414;2023-06-10T00:31:33;10.43;;;9.43;;
3052;SDS011;1536;51.098;6.414;2023-06-10T00:34:00;10.40;;;9.50;;
3052;SDS011;1536;51.098;6.414;2023-06-10T00:36:28;9.73;;;8.80;;
3052;SDS011;1536;51.098;6.414;2023-06-10T00:38:55;9.97;;;9.10;;
3052;SDS011;1536;51.098;6.414;2023-06-10T00:41:22;10.43;;;9.43;;
3052;SDS011;1536;51.098;6.414;2023-06-10T00:43:48;10.43;;;9.50;;
3052;SDS011;1536;51.098;6.414;2023-06-10T00:46:15;10.43;;;9.30;;
3052;SDS011;1536;51.098;6.414;2023-06-10T00:48:44;10.87;;;9.87;;
3052;SDS011;1536;51.098;6.414;2023-06-10T00:51:12;10.57;;;9.67;;
3052;SDS011;1536;51.098;6.414;2023-06-10T00:53:40;10.57;;;9.57;;
3052;SDS011;1536;51.098;6.414;2023-06-10T00:56:07;11.67;;;9.17;;
3052;SDS011;1536;51.098;6.414;2023-06-10T00:58:34;11.40;;;9.10;;
3052;SDS011;1536;51.098;6.414;2023-06-10T01:01:01;9.73;;;8.83;;
3052;SDS011;1536;51.098;6.414;2023-06-10T01:03:30;21.60;;;11.83;;
3052;SDS011;1536;51.098;6.414;2023-06-10T01:05:57;9.90;;;8.93;;
3052;SDS011;1536;51.098;6.414;2023-06-10T01:08:31;10.47;;;9.47;;
3052;SDS011;1536;51.098;6.414;2023-06-10T01:11:07;10.80;;;9.30;;
3052;SDS011;1536;51.098;6.414;2023-06-10T01:13:40;11.47;;;10.37;;
3052;SDS011;1536;51.098;6.414;2023-06-10T01:16:08;10.77;;;9.87;;
3052;SDS011;1536;51.098;6.414;2023-06-10T01:18:36;10.50;;;9.50;;
3052;SDS011;1536;51.098;6.414;2023-06-10T01:21:03;10.33;;;9.43;;
3052;SDS011;1536;51.098;6.414;2023-06-10T01:23:34;10.70;;;9.70;;
3052;SDS011;1536;51.098;6.414;2023-06-10T01:26:02;9.93;;;9.10;;
3052;SDS011;1536;51.098;6.414;2023-06-10T01:28:33;10.17;;;9.07;;
3052;SDS011;1536;51.098;6.414;2023-06-10T01:31:06;10.67;;;9.67;;
3052;SDS011;1536;51.098;6.414;2023-06-10T01:33:41;11.53;;;10.40;;
3052;SDS011;1536;51.098;6.414;2023-06-10T01:36:11;12.53;;;10.03;;
3052;SDS011;1536;51.098;6.414;2023-06-10T01:38:42;10.60;;;9.40;;
3052;SDS011;1536;51.098;6.414;2023-06-10T01:41:11;11.33;;;10.20;;
3052;SDS011;1536;51.098;6.414;2023-06-10T01:43:39;12.10;;;10.90;;
3052;SDS011;1536;51.098;6.414;2023-06-10T01:46:08;12.30;;;9.97;;
3052;SDS011;1536;51.098;6.414;2023-06-10T01:48:37;11.40;;;10.30;;
3052;SDS011;1536;51.098;6.414;2023-06-10T01:51:04;9.97;;;9.07;;
3052;SDS011;1536;51.098;6.414;2023-06-10T01:53:31;11.90;;;10.70;;
3052;SDS011;1536;51.098;6.414;2023-06-10T01:55:59;11.47;;;10.10;;
3052;SDS011;1536;51.098;6.414;2023-06-10T01:58:26;13.70;;;10.43;;
3052;SDS011;1536;51.098;6.414;2023-06-10T02:00:52;10.97;;;9.97;;
3052;SDS011;1536;51.098;6.414;2023-06-10T02:03:19;10.77;;;9.87;;
3052;SDS011;1536;51.098;6.414;2023-06-10T02:05:46;10.23;;;9.30;;
3052;SDS011;1536;51.098;6.414;2023-06-10T02:08:12;11.10;;;10.10;;
3052;SDS011;1536;51.098;6.414;2023-06-10T02:10:39;14.03;;;10.87;;
3052;SDS011;1536;51.098;6.414;2023-06-10T02:13:08;12.10;;;10.87;;
3052;SDS011;1536;51.098;6.414;2023-06-10T02:15:35;13.07;;;10.80;;
3052;SDS011;1536;51.098;6.414;2023-06-10T02:18:01;10.80;;;9.80;;
3052;SDS011;1536;51.098;6.414;2023-06-10T02:20:28;11.20;;;10.20;;
3052;SDS011;1536;51.098;6.414;2023-06-10T02:22:55;11.63;;;10.50;;
3052;SDS011;1536;51.098;6.414;2023-06-10T02:25:22;13.17;;;11.40;;
3052;SDS011;1536;51.098;6.414;2023-06-10T02:27:49;11.67;;;10.33;;
3052;SDS011;1536;51.098;6.414;2023-06-10T02:30:17;11.60;;;10.50;;
3052;SDS011;1536;51.098;6.414;2023-06-10T02:32:45;12.67;;;11.47;;
3052;SDS011;1536;51.098;6.414;2023-06-10T02:35:13;13.10;;;10.50;;
3052;SDS011;1536;51.098;6.414;2023-06-10T02:37:39;11.30;;;10.30;;
3052;SDS011;1536;51.098;6.414;2023-06-10T02:40:06;10.10;;;9.20;;
3052;SDS011;1536;51.098;6.414;2023-06-10T02:42:35;11.13;;;10.13;;
3052;SDS011;1536;51.098;6.414;2023-06-10T02:45:02;11.93;;;10.83;;
3052;SDS011;1536;51.098;6.414;2023-06-10T02:47:30;12.77;;;9.80;;
3052;SDS011;1536;51.098;6.414;2023-06-10T02:49:57;11.43;;;10.30;;
3052;SDS011;1536;51.098;6.414;2023-06-10T02:52:24;14.50;;;10.53;;
3052;SDS011;1536;51.098;6.414;2023-06-10T02:54:50;10.47;;;9.47;;
3052;SDS011;1536;51.098;6.414;2023-06-10T02:57:17;10.63;;;9.53;;
3052;SDS011;1536;51.098;6.414;2023-06-10T02:59:44;11.60;;;10.43;;
3052;SDS011;1536;51.098;6.414;2023-06-10T03:02:10;11.07;;;9.97;;
3052;SDS011;1536;51.098;6.414;2023-06-10T03:04:38;10.50;;;9.60;;
3052;SDS011;1536;51.098;6.414;2023-06-10T03:07:06;10.33;;;9.43;;
3052;SDS011;1536;51.098;6.414;2023-06-10T03:09:33;11.60;;;9.50;;
3052;SDS011;1536;51.098;6.414;2023-06-10T03:12:00;11.27;;;10.17;;
3052;SDS011;1536;51.098;6.414;2023-06-10T03:14:27;11.43;;;10.23;;
3052;SDS011;1536;51.098;6.414;2023-06-10T03:16:54;12.43;;;11.23;;
3052;SDS011;1536;51.098;6.414;2023-06-10T03:19:20;11.40;;;10.33;;
3052;SDS011;1536;51.098;6.414;2023-06-10T03:21:57;11.67;;;10.50;;
3052;SDS011;1536;51.098;6.414;2023-06-10T03:24:33;11.27;;;10.17;;
3052;SDS011;1536;51.098;6.414;2023-06-10T03:27:00;11.93;;;10.33;;
3052;SDS011;1536;51.098;6.414;2023-06-10T03:29:29;9.90;;;8.97;;
3052;SDS011;1536;51.098;6.414;2023-06-10T03:31:57;11.73;;;10.53;;
3052;SDS011;1536;51.098;6.414;2023-06-10T03:34:23;10.83;;;9.00;;
3052;SDS011;1536;51.098;6.414;2023-06-10T03:36:51;10.70;;;9.67;;
3052;SDS011;1536;51.098;6.414;2023-06-10T03:39:18;10.37;;;9.47;;
3052;SDS011;1536;51.098;6.414;2023-06-10T03:41:45;10.40;;;9.40;;
3052;SDS011;1536;51.098;6.414;2023-06-10T03:44:12;12.97;;;10.30;;
3052;SDS011;1536;51.098;6.414;2023-06-10T03:46:39;10.17;;;9.17;;
3052;SDS011;1536;51.098;6.414;2023-06-10T03:49:05;9.40;;;8.60;;
3052;SDS011;1536;51.098;6.414;2023-06-10T03:51:32;11.00;;;9.93;;
3052;SDS011;1536;51.098;6.414;2023-06-10T03:54:00;12.03;;;9.90;;
3052;SDS011;1536;51.098;6.414;2023-06-10T03:56:27;10.67;;;9.57;;
3052;SDS011;1536;51.098;6.414;2023-06-10T03:58:54;12.10;;;10.10;;
3052;SDS011;1536;51.098;6.414;2023-06-10T04:01:21;11.57;;;10.40;;
3052;SDS011;1536;51.098;6.414;2023-06-10T04:03:48;11.30;;;10.20;;
3052;SDS011;1536;51.098;6.414;2023-06-10T04:06:16;11.43;;;10.40;;
3052;SDS011;1536;51.098;6.414;2023-06-10T04:08:43;10.50;;;9.50;;
3052;SDS011;1536;51.098;6.414;2023-06-10T04:11:11;10.70;;;9.70;;
3052;SDS011;1536;51.098;6.414;2023-06-10T04:13:37;15.63;;;10.00;;
3052;SDS011;1536;51.098;6.414;2023-06-10T04:16:04;11.60;;;9.77;;
3052;SDS011;1536;51.098;6.414;2023-06-10T04:18:31;10.97;;;9.87;;
3052;SDS011;1536;51.098;6.414;2023-06-10T04:20:58;9.70;;;8.87;;
3052;SDS011;1536;51.098;6.414;2023-06-10T04:23:25;11.40;;;10.00;;
3052;SDS011;1536;51.098;6.414;2023-06-10T04:25:51;13.60;;;9.70;;
3052;SDS011;1536;51.098;6.414;2023-06-10T04:28:19;10.70;;;8.77;;
3052;SDS011;1536;51.098;6.414;2023-06-10T04:30:46;10.00;;;9.00;;
3052;SDS011;1536;51.098;6.414;2023-06-10T04:33:13;10.00;;;9.00;;
3052;SDS011;1536;51.098;6.414;2023-06-10T04:35:40;9.97;;;9.17;;
3052;SDS011;1536;51.098;6.414;2023-06-10T04:38:07;10.00;;;9.10;;
3052;SDS011;1536;51.098;6.414;2023-06-10T04:40:34;9.93;;;8.93;;
3052;SDS011;1536;51.098;6.414;2023-06-10T04:43:00;10.30;;;9.20;;
3052;SDS011;1536;51.098;6.414;2023-06-10T04:45:28;9.90;;;8.90;;
3052;SDS011;1536;51.098;6.414;2023-06-10T04:47:56;10.40;;;9.17;;
3052;SDS011;1536;51.098;6.414;2023-06-10T04:50:23;11.70;;;9.00;;
3052;SDS011;1536;51.098;6.414;2023-06-10T04:52:50;10.10;;;9.20;;
3052;SDS011;1536;51.098;6.414;2023-06-10T04:55:16;9.00;;;8.30;;
3052;SDS011;1536;51.098;6.414;2023-06-10T04:57:43;9.80;;;8.80;;
3052;SDS011;1536;51.098;6.414;2023-06-10T05:00:10;15.87;;;9.50;;
3052;SDS011;1536;51.098;6.414;2023-06-10T05:02:39;10.10;;;9.17;;
3052;SDS011;1536;51.098;6.414;2023-06-10T05:05:06;10.53;;;9.53;;
3052;SDS011;1536;51.098;6.414;2023-06-10T05:07:33;9.40;;;8.50;;
3052;SDS011;1536;51.098;6.414;2023-06-10T05:10:00;9.63;;;8.70;;
3052;SDS011;1536;51.098;6.414;2023-06-10T05:12:27;10.00;;;9.00;;
3052;SDS011;1536;51.098;6.414;2023-06-10T05:14:54;11.40;;;8.60;;
3052;SDS011;1536;51.098;6.414;2023-06-10T05:17:21;9.33;;;8.43;;
3052;SDS011;1536;51.098;6.414;2023-06-10T05:19:49;11.30;;;10.17;;
3052;SDS011;1536;51.098;6.414;2023-06-10T05:22:16;10.57;;;9.60;;
3052;SDS011;1536;51.098;6.414;2023-06-10T05:24:43;9.63;;;8.70;;
3052;SDS011;1536;51.098;6.414;2023-06-10T05:27:09;11.93;;;9.40;;
3052;SDS011;1536;51.098;6.414;2023-06-10T05:29:37;14.17;;;9.30;;
3052;SDS011;1536;51.098;6.414;2023-06-10T05:32:05;10.03;;;9.13;;
3052;SDS011;1536;51.098;6.414;2023-06-10T05:34:33;11.63;;;8.10;;
3052;SDS011;1536;51.098;6.414;2023-06-10T05:37:01;9.63;;;8.57;;
3052;SDS011;1536;51.098;6.414;2023-06-10T05:39:28;12.87;;;9.00;;
3052;SDS011;1536;51.098;6.414;2023-06-10T05:41:55;9.70;;;8.70;;
3052;SDS011;1536;51.098;6.414;2023-06-10T05:44:23;9.73;;;8.23;;
3052;SDS011;1536;51.098;6.414;2023-06-10T05:46:50;11.93;;;9.60;;
3052;SDS011;1536;51.098;6.414;2023-06-10T05:49:17;9.33;;;8.33;;
3052;SDS011;1536;51.098;6.414;2023-06-10T05:51:44;9.37;;;8.07;;
3052;SDS011;1536;51.098;6.414;2023-06-10T05:54:12;10.17;;;9.17;;
3052;SDS011;1536;51.098;6.414;2023-06-10T05:56:38;9.17;;;8.13;;
3052;SDS011;1536;51.098;6.414;2023-06-10T05:59:05;9.13;;;7.80;;
3052;SDS011;1536;51.098;6.414;2023-06-10T06:01:32;9.57;;;8.57;;
3052;SDS011;1536;51.098;6.414;2023-06-10T06:03:58;9.00;;;8.20;;
3052;SDS011;1536;51.098;6.414;2023-06-10T06:06:25;12.20;;;8.13;;
3052;SDS011;1536;51.098;6.414;2023-06-10T06:08:52;9.73;;;8.00;;
3052;SDS011;1536;51.098;6.414;2023-06-10T06:11:20;9.23;;;8.33;;
3052;SDS011;1536;51.098;6.414;2023-06-10T06:13:47;9.93;;;9.03;;
3052;SDS011;1536;51.098;6.414;2023-06-10T06:16:14;10.63;;;8.67;;
3052;SDS011;1536;51.098;6.414;2023-06-10T06:18:40;10.03;;;8.73;;
3052;SDS011;1536;51.098;6.414;2023-06-10T06:21:07;9.57;;;8.67;;
3052;SDS011;1536;51.098;6.414;2023-06-10T06:23:34;10.73;;;9.00;;
3052;SDS011;1536;51.098;6.414;2023-06-10T06:26:00;10.37;;;9.37;;
3052;SDS011;1536;51.098;6.414;2023-06-10T06:28:28;9.77;;;8.83;;
3052;SDS011;1536;51.098;6.414;2023-06-10T06:30:56;8.93;;;8.13;;
3052;SDS011;1536;51.098;6.414;2023-06-10T06:33:22;9.90;;;8.90;;
3052;SDS011;1536;51.098;6.414;2023-06-10T06:35:51;12.27;;;9.97;;
3052;SDS011;1536;51.098;6.414;2023-06-10T06:38:18;9.57;;;8.73;;
3052;SDS011;1536;51.098;6.414;2023-06-10T06:40:44;9.50;;;8.60;;
3052;SDS011;1536;51.098;6.414;2023-06-10T06:43:11;10.03;;;9.03;;
3052;SDS011;1536;51.098;6.414;2023-06-10T06:45:39;10.57;;;8.93;;
3052;SDS011;1536;51.098;6.414;2023-06-10T06:48:06;9.40;;;8.50;;
3052;SDS011;1536;51.098;6.414;2023-06-10T06:50:33;10.03;;;9.00;;
3052;SDS011;1536;51.098;6.414;2023-06-10T06:52:59;8.40;;;7.70;;
3052;SDS011;1536;51.098;6.414;2023-06-10T06:55:26;11.53;;;8.67;;
3052;SDS011;1536;51.098;6.414;2023-06-10T06:57:53;9.60;;;8.00;;
3052;SDS011;1536;51.098;6.414;2023-06-10T07:00:20;8.57;;;7.63;;
3052;SDS011;1536;51.098;6.414;2023-06-10T07:02:49;8.23;;;7.40;;
3052;SDS011;1536;51.098;6.414;2023-06-10T07:05:15;8.93;;;8.00;;
3052;SDS011;1536;51.098;6.414;2023-06-10T07:07:42;9.40;;;8.40;;
3052;SDS011;1536;51.098;6.414;2023-06-10T07:10:09;7.77;;;7.07;;
3052;SDS011;1536;51.098;6.414;2023-06-10T07:12:36;9.70;;;7.80;;
3052;SDS011;1536;51.098;6.414;2023-06-10T07:15:03;8.63;;;7.87;;
3052;SDS011;1536;51.098;6.414;2023-06-10T07:17:30;8.30;;;7.50;;
3052;SDS011;1536;51.098;6.414;2023-06-10T07:19:58;9.00;;;8.10;;
3052;SDS011;1536;51.098;6.414;2023-06-10T07:22:25;10.13;;;7.47;;
3052;SDS011;1536;51.098;6.414;2023-06-10T07:24:52;8.97;;;8.07;;
3052;SDS011;1536;51.098;6.414;2023-06-10T07:27:19;9.63;;;8.63;;
3052;SDS011;1536;51.098;6.414;2023-06-10T07:29:46;8.50;;;7.60;;
3052;SDS011;1536;51.098;6.414;2023-06-10T07:32:13;9.40;;;7.90;;
3052;SDS011;1536;51.098;6.414;2023-06-10T07:34:40;8.60;;;7.70;;
3052;SDS011;1536;51.098;6.414;2023-06-10T07:37:08;8.80;;;7.90;;
3052;SDS011;1536;51.098;6.414;2023-06-10T07:39:35;8.57;;;7.77;;
3052;SDS011;1536;51.098;6.414;2023-06-10T07:42:01;9.30;;;8.40;;
3052;SDS011;1536;51.098;6.414;2023-06-10T07:44:28;8.53;;;7.70;;
3052;SDS011;1536;51.098;6.414;2023-06-10T07:46:55;9.07;;;8.17;;
3052;SDS011;1536;51.098;6.414;2023-06-10T07:49:23;8.70;;;7.77;;
3052;SDS011;1536;51.098;6.414;2023-06-10T07:51:50;10.90;;;7.37;;
3052;SDS011;1536;51.098;6.414;2023-06-10T07:54:18;9.10;;;7.93;;
3052;SDS011;1536;51.098;6.414;2023-06-10T07:56:44;18.77;;;7.80;;
3052;SDS011;1536;51.098;6.414;2023-06-10T07:59:11;10.80;;;7.73;;
3052;SDS011;1536;51.098;6.414;2023-06-10T08:01:39;8.73;;;6.90;;
3052;SDS011;1536;51.098;6.414;2023-06-10T08:04:07;8.40;;;7.70;;
3052;SDS011;1536;51.098;6.414;2023-06-10T08:06:34;8.17;;;7.47;;
3052;SDS011;1536;51.098;6.414;2023-06-10T08:09:01;8.10;;;7.30;;
3052;SDS011;1536;51.098;6.414;2023-06-10T08:11:32;8.50;;;7.27;;
3052;SDS011;1536;51.098;6.414;2023-06-10T08:14:01;8.50;;;7.60;;
3052;SDS011;1536;51.098;6.414;2023-06-10T08:16:27;8.37;;;7.67;;
3052;SDS011;1536;51.098;6.414;2023-06-10T08:18:54;9.60;;;8.30;;
3052;SDS011;1536;51.098;6.414;2023-06-10T08:21:21;9.77;;;7.63;;
3052;SDS011;1536;51.098;6.414;2023-06-10T08:23:48;8.10;;;7.30;;
3052;SDS011;1536;51.098;6.414;2023-06-10T08:26:18;10.37;;;7.27;;
3052;SDS011;1536;51.098;6.414;2023-06-10T08:28:46;7.70;;;7.00;;
3052;SDS011;1536;51.098;6.414;2023-06-10T08:31:13;10.10;;;7.63;;
3052;SDS011;1536;51.098;6.414;2023-06-10T08:33:41;8.60;;;6.63;;
3052;SDS011;1536;51.098;6.414;2023-06-10T08:36:08;8.17;;;7.23;;
3052;SDS011;1536;51.098;6.414;2023-06-10T08:38:34;8.87;;;8.00;;
3052;SDS011;1536;51.098;6.414;2023-06-10T08:41:01;7.60;;;6.80;;
3052;SDS011;1536;51.098;6.414;2023-06-10T08:43:31;7.50;;;6.90;;
3052;SDS011;1536;51.098;6.414;2023-06-10T08:46:01;8.50;;;7.60;;
3052;SDS011;1536;51.098;6.414;2023-06-10T08:48:29;7.93;;;7.13;;
3052;SDS011;1536;51.098;6.414;2023-06-10T08:50:56;11.67;;;7.70;;
3052;SDS011;1536;51.098;6.414;2023-06-10T08:53:24;11.60;;;7.23;;
3052;SDS011;1536;51.098;6.414;2023-06-10T08:55:53;8.43;;;7.60;;
3052;SDS011;1536;51.098;6.414;2023-06-10T08:58:23;8.27;;;7.57;;
3052;SDS011;1536;51.098;6.414;2023-06-10T09:00:50;9.93;;;8.00;;
3052;SDS011;1536;51.098;6.414;2023-06-10T09:03:18;8.97;;;8.17;;
3052;SDS011;1536;51.098;6.414;2023-06-10T09:05:45;8.10;;;7.40;;
3052;SDS011;1536;51.098;6.414;2023-06-10T09:08:12;9.60;;;7.30;;
3052;SDS011;1536;51.098;6.414;2023-06-10T09:10:41;8.43;;;7.63;;
3052;SDS011;1536;51.098;6.414;2023-06-10T09:13:08;8.60;;;7.23;;
3052;SDS011;1536;51.098;6.414;2023-06-10T09:15:35;11.83;;;7.40;;
3052;SDS011;1536;51.098;6.414;2023-06-10T09:18:01;10.77;;;7.97;;
3052;SDS011;1536;51.098;6.414;2023-06-10T09:20:31;11.23;;;7.80;;
3052;SDS011;1536;51.098;6.414;2023-06-10T09:22:58;9.40;;;8.43;;
3052;SDS011;1536;51.098;6.414;2023-06-10T09:25:34;8.43;;;7.70;;
3052;SDS011;1536;51.098;6.414;2023-06-10T09:28:02;9.90;;;9.00;;
3052;SDS011;1536;51.098;6.414;2023-06-10T09:30:30;9.87;;;7.67;;
3052;SDS011;1536;51.098;6.414;2023-06-10T09:33:00;8.60;;;7.80;;
3052;SDS011;1536;51.098;6.414;2023-06-10T09:35:28;9.03;;;8.07;;
3052;SDS011;1536;51.098;6.414;2023-06-10T09:37:57;8.60;;;7.70;;
3052;SDS011;1536;51.098;6.414;2023-06-10T09:40:25;8.03;;;7.00;;
3052;SDS011;1536;51.098;6.414;2023-06-10T09:42:53;8.70;;;7.57;;
3052;SDS011;1536;51.098;6.414;2023-06-10T09:45:21;9.70;;;7.43;;
3052;SDS011;1536;51.098;6.414;2023-06-10T09:47:51;8.53;;;7.50;;
3052;SDS011;1536;51.098;6.414;2023-06-10T09:50:18;7.77;;;7.10;;
3052;SDS011;1536;51.098;6.414;2023-06-10T09:52:45;8.40;;;7.70;;
3052;SDS011;1536;51.098;6.414;2023-06-10T09:55:14;8.10;;;7.07;;
3052;SDS011;1536;51.098;6.414;2023-06-10T09:57:41;7.97;;;7.27;;
3052;SDS011;1536;51.098;6.414;2023-06-10T10:00:09;8.30;;;7.50;;
3052;SDS011;1536;51.098;6.414;2023-06-10T10:02:43;8.33;;;7.40;;
3052;SDS011;1536;51.098;6.414;2023-06-10T10:05:13;12.50;;;8.00;;
3052;SDS011;1536;51.098;6.414;2023-06-10T10:07:40;8.70;;;7.90;;
3052;SDS011;1536;51.098;6.414;2023-06-10T10:10:07;8.93;;;7.77;;
3052;SDS011;1536;51.098;6.414;2023-06-10T10:12:36;10.83;;;8.50;;
3052;SDS011;1536;51.098;6.414;2023-06-10T10:15:05;9.10;;;8.20;;
3052;SDS011;1536;51.098;6.414;2023-06-10T10:17:33;9.60;;;7.90;;
3052;SDS011;1536;51.098;6.414;2023-06-10T10:20:03;8.43;;;7.63;;
3052;SDS011;1536;51.098;6.414;2023-06-10T10:22:33;8.90;;;8.10;;
3052;SDS011;1536;51.098;6.414;2023-06-10T10:25:05;9.60;;;7.53;;
3052;SDS011;1536;51.098;6.414;2023-06-10T10:27:39;9.00;;;8.10;;
3052;SDS011;1536;51.098;6.414;2023-06-10T10:30:09;9.00;;;7.87;;
3052;SDS011;1536;51.098;6.414;2023-06-10T10:32:40;10.17;;;8.87;;
3052;SDS011;1536;51.098;6.414;2023-06-10T10:35:16;8.93;;;7.90;;
3052;SDS011;1536;51.098;6.414;2023-06-10T10:37:46;10.47;;;8.30;;
3052;SDS011;1536;51.098;6.414;2023-06-10T10:40:14;8.47;;;7.60;;
3052;SDS011;1536;51.098;6.414;2023-06-10T10:42:43;8.97;;;8.10;;
3052;SDS011;1536;51.098;6.414;2023-06-10T10:45:10;8.60;;;7.70;;
3052;SDS011;1536;51.098;6.414;2023-06-10T10:47:37;8.53;;;7.73;;
3052;SDS011;1536;51.098;6.414;2023-06-10T10:50:12;9.23;;;8.43;;
3052;SDS011;1536;51.098;6.414;2023-06-10T10:52:46;8.67;;;7.17;;
3052;SDS011;1536;51.098;6.414;2023-06-10T10:55:13;8.77;;;7.90;;
3052;SDS011;1536;51.098;6.414;2023-06-10T10:57:40;11.07;;;8.70;;
3052;SDS011;1536;51.098;6.414;2023-06-10T11:00:09;9.27;;;8.37;;
3052;SDS011;1536;51.098;6.414;2023-06-10T11:02:37;11.60;;;8.50;;
3052;SDS011;1536;51.098;6.414;2023-06-10T11:05:08;9.43;;;8.63;;
3052;SDS011;1536;51.098;6.414;2023-06-10T11:07:36;10.10;;;8.73;;
3052;SDS011;1536;51.098;6.414;2023-06-10T11:10:06;8.73;;;7.83;;
3052;SDS011;1536;51.098;6.414;2023-06-10T11:12:41;8.47;;;7.60;;
3052;SDS011;1536;51.098;6.414;2023-06-10T11:15:19;9.17;;;7.50;;
3052;SDS011;1536;51.098;6.414;2023-06-10T11:20:45;8.73;;;8.03;;
3052;SDS011;1536;51.098;6.414;2023-06-10T11:23:24;7.93;;;7.33;;
3052;SDS011;1536;51.098;6.414;2023-06-10T11:26:09;8.70;;;7.90;;
3052;SDS011;1536;51.098;6.414;2023-06-10T11:28:37;8.87;;;7.97;;
3052;SDS011;1536;51.098;6.414;2023-06-10T11:31:05;15.77;;;7.83;;
3052;SDS011;1536;51.098;6.414;2023-06-10T11:33:32;9.60;;;7.83;;
3052;SDS011;1536;51.098;6.414;2023-06-10T11:35:58;8.40;;;7.60;;
3052;SDS011;1536;51.098;6.414;2023-06-10T11:38:25;8.10;;;7.30;;
3052;SDS011;1536;51.098;6.414;2023-06-10T11:40:53;8.17;;;6.77;;
3052;SDS011;1536;51.098;6.414;2023-06-10T11:43:21;8.40;;;7.53;;
3052;SDS011;1536;51.098;6.414;2023-06-10T11:45:53;8.83;;;8.13;;
3052;SDS011;1536;51.098;6.414;2023-06-10T11:48:21;8.40;;;7.70;;
3052;SDS011;1536;51.098;6.414;2023-06-10T11:50:48;8.90;;;7.63;;
3052;SDS011;1536;51.098;6.414;2023-06-10T11:53:15;7.93;;;7.23;;
3052;SDS011;1536;51.098;6.414;2023-06-10T11:55:43;9.33;;;8.27;;
3052;SDS011;1536;51.098;6.414;2023-06-10T11:58:13;9.43;;;7.40;;
3052;SDS011;1536;51.098;6.414;2023-06-10T12:00:44;8.37;;;7.63;;
3052;SDS011;1536;51.098;6.414;2023-06-10T12:03:12;8.50;;;7.70;;
3052;SDS011;1536;51.098;6.414;2023-06-10T12:05:40;8.90;;;7.70;;
3052;SDS011;1536;51.098;6.414;2023-06-10T12:08:19;8.87;;;8.00;;
3052;SDS011;1536;51.098;6.414;2023-06-10T12:10:45;7.70;;;7.10;;
3052;SDS011;1536;51.098;6.414;2023-06-10T12:13:12;8.00;;;7.20;;
3052;SDS011;1536;51.098;6.414;2023-06-10T12:15:39;12.67;;;7.73;;
3052;SDS011;1536;51.098;6.414;2023-06-10T12:18:07;7.87;;;7.20;;
3052;SDS011;1536;51.098;6.414;2023-06-10T12:20:35;8.87;;;7.97;;
3052;SDS011;1536;51.098;6.414;2023-06-10T12:23:09;8.20;;;7.40;;
3052;SDS011;1536;51.098;6.414;2023-06-10T12:25:36;8.40;;;7.60;;
3052;SDS011;1536;51.098;6.414;2023-06-10T12:28:04;10.07;;;8.37;;
3052;SDS011;1536;51.098;6.414;2023-06-10T12:30:31;8.20;;;7.50;;
3052;SDS011;1536;51.098;6.414;2023-06-10T12:32:59;10.63;;;8.30;;
3052;SDS011;1536;51.098;6.414;2023-06-10T12:35:26;8.03;;;7.33;;
3052;SDS011;1536;51.098;6.414;2023-06-10T12:37:57;8.43;;;7.47;;
3052;SDS011;1536;51.098;6.414;2023-06-10T12:40:27;7.23;;;6.63;;
3052;SDS011;1536;51.098;6.414;2023-06-10T12:42:55;7.97;;;7.17;;
3052;SDS011;1536;51.098;6.414;2023-06-10T12:45:28;8.00;;;7.20;;
3052;SDS011;1536;51.098;6.414;2023-06-10T12:48:05;7.70;;;7.00;;
3052;SDS011;1536;51.098;6.414;2023-06-10T12:50:34;8.03;;;7.23;;
3052;SDS011;1536;51.098;6.414;2023-06-10T12:53:02;7.80;;;7.20;;
3052;SDS011;1536;51.098;6.414;2023-06-10T12:55:30;8.80;;;8.10;;
3052;SDS011;1536;51.098;6.414;2023-06-10T12:57:57;7.90;;;7.13;;
3052;SDS011;1536;51.098;6.414;2023-06-10T13:00:24;8.10;;;7.40;;
3052;SDS011;1536;51.098;6.414;2023-06-10T13:02:53;8.50;;;7.80;;
3052;SDS011;1536;51.098;6.414;2023-06-10T13:05:20;9.83;;;8.37;;
3052;SDS011;1536;51.098;6.414;2023-06-10T13:07:47;7.90;;;7.20;;
3052;SDS011;1536;51.098;6.414;2023-06-10T13:10:14;7.83;;;7.13;;
3052;SDS011;1536;51.098;6.414;2023-06-10T13:12:42;8.20;;;7.37;;
3052;SDS011;1536;51.098;6.414;2023-06-10T13:15:09;7.47;;;6.97;;
3052;SDS011;1536;51.098;6.414;2023-06-10T13:17:37;7.17;;;6.53;;
3052;SDS011;1536;51.098;6.414;2023-06-10T13:20:04;8.93;;;8.00;;
3052;SDS011;1536;51.098;6.414;2023-06-10T13:22:33;7.87;;;7.17;;
3052;SDS011;1536;51.098;6.414;2023-06-10T13:25:01;8.60;;;7.70;;
3052;SDS011;1536;51.098;6.414;2023-06-10T13:27:29;7.70;;;7.10;;
3052;SDS011;1536;51.098;6.414;2023-06-10T13:29:57;8.57;;;7.87;;
3052;SDS011;1536;51.098;6.414;2023-06-10T13:32:24;11.10;;;7.10;;
3052;SDS011;1536;51.098;6.414;2023-06-10T13:34:50;7.20;;;6.70;;
3052;SDS011;1536;51.098;6.414;2023-06-10T13:37:18;8.13;;;7.33;;
3052;SDS011;1536;51.098;6.414;2023-06-10T13:39:45;13.17;;;6.60;;
3052;SDS011;1536;51.098;6.414;2023-06-10T13:42:13;7.30;;;6.70;;
3052;SDS011;1536;51.098;6.414;2023-06-10T13:44:40;7.70;;;6.90;;
3052;SDS011;1536;51.098;6.414;2023-06-10T13:47:08;9.60;;;7.43;;
3052;SDS011;1536;51.098;6.414;2023-06-10T13:49:35;8.10;;;7.40;;
3052;SDS011;1536;51.098;6.414;2023-06-10T13:52:02;7.80;;;7.07;;
3052;SDS011;1536;51.098;6.414;2023-06-10T13:54:29;8.57;;;7.67;;
3052;SDS011;1536;51.098;6.414;2023-06-10T13:56:56;7.90;;;7.20;;
3052;SDS011;1536;51.098;6.414;2023-06-10T13:59:23;7.80;;;7.10;;
3052;SDS011;1536;51.098;6.414;2023-06-10T14:01:49;8.57;;;7.70;;
3052;SDS011;1536;51.098;6.414;2023-06-10T14:04:17;7.87;;;7.17;;
3052;SDS011;1536;51.098;6.414;2023-06-10T14:06:44;7.90;;;7.10;;
3052;SDS011;1536;51.098;6.414;2023-06-10T14:09:11;7.17;;;6.27;;
3052;SDS011;1536;51.098;6.414;2023-06-10T14:11:39;8.20;;;7.33;;
3052;SDS011;1536;51.098;6.414;2023-06-10T14:14:06;7.53;;;6.93;;
3052;SDS011;1536;51.098;6.414;2023-06-10T14:16:33;7.27;;;6.67;;
3052;SDS011;1536;51.098;6.414;2023-06-10T14:19:00;7.67;;;6.93;;
3052;SDS011;1536;51.098;6.414;2023-06-10T14:21:28;7.40;;;6.77;;
3052;SDS011;1536;51.098;6.414;2023-06-10T14:23:54;7.30;;;6.70;;
3052;SDS011;1536;51.098;6.414;2023-06-10T14:26:21;10.90;;;7.50;;
3052;SDS011;1536;51.098;6.414;2023-06-10T14:28:48;9.73;;;7.70;;
3052;SDS011;1536;51.098;6.414;2023-06-10T14:31:15;7.97;;;7.27;;
3052;SDS011;1536;51.098;6.414;2023-06-10T14:33:42;7.63;;;6.93;;
3052;SDS011;1536;51.098;6.414;2023-06-10T14:36:09;8.20;;;7.43;;
3052;SDS011;1536;51.098;6.414;2023-06-10T14:38:37;9.30;;;7.67;;
3052;SDS011;1536;51.098;6.414;2023-06-10T14:41:06;8.00;;;7.30;;
3052;SDS011;1536;51.098;6.414;2023-06-10T14:43:32;8.00;;;7.27;;
3052;SDS011;1536;51.098;6.414;2023-06-10T14:45:59;9.23;;;7.83;;
3052;SDS011;1536;51.098;6.414;2023-06-10T14:48:26;8.30;;;7.40;;
3052;SDS011;1536;51.098;6.414;2023-06-10T14:50:53;7.67;;;6.93;;
3052;SDS011;1536;51.098;6.414;2023-06-10T14:53:20;7.50;;;6.90;;
3052;SDS011;1536;51.098;6.414;2023-06-10T14:55:48;7.47;;;6.97;;
3052;SDS011;1536;51.098;6.414;2023-06-10T14:58:15;7.93;;;7.33;;
3052;SDS011;1536;51.098;6.414;2023-06-10T15:00:42;8.03;;;7.20;;
3052;SDS011;1536;51.098;6.414;2023-06-10T15:03:08;7.33;;;6.63;;
3052;SDS011;1536;51.098;6.414;2023-06-10T15:05:35;7.83;;;7.13;;
3052;SDS011;1536;51.098;6.414;2023-06-10T15:08:02;8.20;;;7.00;;
3052;SDS011;1536;51.098;6.414;2023-06-10T15:10:29;13.97;;;7.57;;
3052;SDS011;1536;51.098;6.414;2023-06-10T15:12:58;8.07;;;7.37;;
3052;SDS011;1536;51.098;6.414;2023-06-10T15:15:24;8.57;;;7.63;;